Time;durP1;ratioP1;P1;durP2;ratioP2;P2;SDS_P1;SDS_P2;PMS_P1;PMS_P2;Temp;Humidity;BMP_temperature;BMP_pressure;BME280_temperature;BME280_humidity;BME280_pressure;Samples;Min_cycle;Max_cycle;Signal;HPM_P1;HPM_P2
2022/05/27 00:00:42;;;;;;;2.53;1.60;;;15.50;99.90;;;;;;5087424;28;20028;-67
2022/05/27 00:03:09;;;;;;;9.15;1.85;;;15.50;99.90;;;;;;5087456;28;20078;-67
2022/05/27 00:05:35;;;;;;;12.25;1.80;;;15.50;99.90;;;;;;5087601;28;20085;-68
2022/05/27 00:08:01;;;;;;;2.83;1.50;;;15.50;99.90;;;;;;5090543;28;20019;-68
2022/05/27 00:10:26;;;;;;;7.00;1.48;;;15.40;99.90;;;;;;5090186;28;20720;-67
2022/05/27 00:12:53;;;;;;;3.60;1.38;;;15.40;99.90;;;;;;5090114;28;20593;-67
2022/05/27 00:15:20;;;;;;;9.02;2.25;;;15.40;99.90;;;;;;5090073;28;20016;-67
2022/05/27 00:17:46;;;;;;;4.45;1.75;;;15.40;99.90;;;;;;5090005;28;20032;-67
2022/05/27 00:20:12;;;;;;;7.45;1.45;;;15.40;99.90;;;;;;5104599;28;20031;-67
2022/05/27 00:22:38;;;;;;;7.15;2.10;;;15.40;99.90;;;;;;5110620;28;20027;-68
2022/05/27 00:25:05;;;;;;;5.28;1.70;;;15.40;99.90;;;;;;5107822;28;20031;-67
2022/05/27 00:27:30;;;;;;;4.45;1.77;;;15.40;99.90;;;;;;5107237;28;20484;-67
2022/05/27 00:29:56;;;;;;;3.08;1.70;;;15.40;99.90;;;;;;5109327;28;20043;-67
2022/05/27 00:32:22;;;;;;;4.63;1.65;;;15.40;99.90;;;;;;5110260;28;20464;-67
2022/05/27 00:34:47;;;;;;;2.83;1.63;;;15.40;99.90;;;;;;5110180;28;20028;-69
2022/05/27 00:37:14;;;;;;;4.00;1.38;;;15.40;99.90;;;;;;5110673;28;20128;-67
2022/05/27 00:39:40;;;;;;;3.85;1.30;;;15.40;99.90;;;;;;5110080;28;20047;-67
2022/05/27 00:42:07;;;;;;;7.32;1.73;;;15.40;99.90;;;;;;5110184;28;20045;-68
2022/05/27 00:44:32;;;;;;;7.40;1.52;;;15.40;99.90;;;;;;5110532;28;20217;-68
2022/05/27 00:47:16;;;;;;;4.53;1.73;;;15.40;99.90;;;;;;5110161;28;20388;-67
2022/05/27 00:49:51;;;;;;;7.40;1.75;;;15.40;99.90;;;;;;5110026;28;20084;-68
2022/05/27 00:52:20;;;;;;;3.10;1.50;;;15.40;99.90;;;;;;5110142;28;20446;-68
2022/05/27 00:54:46;;;;;;;11.77;1.70;;;15.40;99.90;;;;;;5109721;28;20027;-68
2022/05/27 00:57:24;;;;;;;3.05;1.33;;;15.30;99.90;;;;;;5113984;28;20024;-68
2022/05/27 00:59:56;;;;;;;8.13;1.80;;;15.30;99.90;;;;;;5114291;28;20051;-68
2022/05/27 01:02:22;;;;;;;5.60;1.10;;;15.40;99.90;;;;;;5112365;28;20069;-68
2022/05/27 01:04:49;;;;;;;1.70;1.20;;;15.30;99.90;;;;;;5111144;28;20028;-68
2022/05/27 01:07:15;;;;;;;4.68;1.55;;;15.30;99.90;;;;;;5111935;28;20043;-68
2022/05/27 01:09:44;;;;;;;1.75;0.90;;;15.30;99.90;;;;;;5113947;28;20419;-68
2022/05/27 01:12:34;;;;;;;4.95;1.33;;;15.30;99.90;;;;;;5113970;28;20073;-68
2022/05/27 01:15:15;;;;;;;4.35;1.38;;;15.30;99.90;;;;;;5114087;28;20036;-68
2022/05/27 01:17:50;;;;;;;5.03;1.30;;;15.30;99.90;;;;;;5113980;28;20437;-68
2022/05/27 01:20:56;;;;;;;7.47;1.40;;;15.30;99.90;;;;;;5113361;28;20047;-68
2022/05/27 01:23:25;;;;;;;4.22;1.35;;;15.30;99.90;;;;;;5050469;28;20036;-68
2022/05/27 01:26:09;;;;;;;3.92;1.33;;;15.20;99.90;;;;;;5050474;28;20060;-68
2022/05/27 01:28:56;;;;;;;2.67;1.30;;;15.20;99.90;;;;;;5088726;28;20481;-68
2022/05/27 01:31:43;;;;;;;5.25;1.58;;;15.10;99.90;;;;;;5113640;28;20456;-68
2022/05/27 01:34:18;;;;;;;4.25;1.23;;;15.20;99.90;;;;;;5113593;28;20063;-68
2022/05/27 01:37:01;;;;;;;3.35;1.40;;;15.20;99.90;;;;;;5113554;28;20023;-68
2022/05/27 01:39:46;;;;;;;3.63;1.38;;;15.20;99.90;;;;;;5113361;28;20042;-68
2022/05/27 01:42:37;;;;;;;4.05;1.30;;;15.20;99.90;;;;;;5113002;28;20032;-68
2022/05/27 01:45:24;;;;;;;4.57;1.58;;;15.10;99.90;;;;;;5092974;28;20081;-68
2022/05/27 01:48:15;;;;;;;6.18;1.70;;;15.10;99.90;;;;;;5093352;28;20021;-68
2022/05/27 01:50:57;;;;;;;4.32;1.45;;;15.00;99.90;;;;;;5107388;28;20028;-68
2022/05/27 01:53:30;;;;;;;3.88;1.50;;;15.00;99.90;;;;;;5110296;28;20427;-68
2022/05/27 01:56:09;;;;;;;3.78;1.48;;;15.00;99.90;;;;;;5109885;28;20027;-68
2022/05/27 01:58:46;;;;;;;7.72;1.60;;;15.00;99.90;;;;;;5109978;28;20134;-67
2022/05/27 02:01:19;;;;;;;5.40;1.52;;;15.10;99.90;;;;;;5109648;28;20069;-68
2022/05/27 02:03:51;;;;;;;4.10;1.92;;;15.10;99.90;;;;;;5109973;28;20016;-67
2022/05/27 02:06:28;;;;;;;5.00;1.90;;;15.10;99.90;;;;;;5109711;28;20023;-68
2022/05/27 02:08:59;;;;;;;8.25;1.85;;;15.10;99.90;;;;;;5109227;28;20123;-67
2022/05/27 02:11:25;;;;;;;4.72;1.63;;;15.10;99.90;;;;;;5113249;28;20076;-67
2022/05/27 02:14:02;;;;;;;3.78;1.30;;;15.10;99.90;;;;;;5112861;28;20023;-68
2022/05/27 02:16:39;;;;;;;5.53;1.48;;;15.10;99.90;;;;;;5112794;28;20529;-67
2022/05/27 02:19:16;;;;;;;3.95;2.15;;;15.10;99.90;;;;;;5112605;28;20460;-68
2022/05/27 02:21:49;;;;;;;4.57;1.50;;;15.10;99.90;;;;;;5112763;28;20083;-67
2022/05/27 02:24:36;;;;;;;4.22;1.45;;;15.10;99.90;;;;;;5112885;28;20031;-67
2022/05/27 02:27:23;;;;;;;7.43;1.90;;;15.10;99.90;;;;;;5112339;28;20030;-67
2022/05/27 02:29:52;;;;;;;7.97;1.52;;;15.20;99.90;;;;;;5096740;28;20468;-67
2022/05/27 02:32:25;;;;;;;7.57;1.83;;;15.10;99.90;;;;;;5112451;28;20027;-67
2022/05/27 02:35:11;;;;;;;3.63;2.00;;;15.10;99.90;;;;;;5112201;28;20384;-67
2022/05/27 02:37:43;;;;;;;6.07;1.92;;;15.10;99.90;;;;;;5112322;28;20042;-67
2022/05/27 02:40:14;;;;;;;10.90;1.77;;;15.10;99.90;;;;;;5112218;28;20057;-67
2022/05/27 02:43:06;;;;;;;7.38;1.85;;;15.10;99.90;;;;;;5112355;27;20023;-67
2022/05/27 02:45:43;;;;;;;6.85;1.90;;;15.10;99.90;;;;;;5112123;28;20080;-67
2022/05/27 02:48:50;;;;;;;2.75;1.38;;;15.10;99.90;;;;;;5112107;28;20101;-67
2022/05/27 02:51:35;;;;;;;3.22;1.35;;;15.00;99.90;;;;;;5112097;28;20024;-68
2022/05/27 02:54:10;;;;;;;8.05;1.60;;;15.00;99.90;;;;;;5110548;28;20456;-68
2022/05/27 02:56:52;;;;;;;7.35;1.75;;;15.10;99.90;;;;;;5111967;28;20046;-68
2022/05/27 02:59:19;;;;;;;3.40;1.88;;;15.10;99.90;;;;;;5111182;28;20533;-68
2022/05/27 03:01:46;;;;;;;1.65;1.10;;;15.10;99.90;;;;;;5111926;28;20114;-68
2022/05/27 03:04:13;;;;;;;7.18;1.65;;;15.10;99.90;;;;;;5111871;28;20028;-68
2022/05/27 03:07:07;;;;;;;3.40;1.27;;;15.00;99.90;;;;;;5111609;28;20069;-68
2022/05/27 03:09:53;;;;;;;2.72;1.73;;;15.00;99.90;;;;;;5112018;28;20038;-68
2022/05/27 03:12:19;;;;;;;6.68;1.73;;;15.00;99.90;;;;;;5111539;28;20027;-68
2022/05/27 03:14:59;;;;;;;2.55;1.40;;;15.00;99.90;;;;;;5111618;28;20391;-68
2022/05/27 03:17:43;;;;;;;2.85;1.38;;;15.00;99.90;;;;;;5111603;28;20034;-68
2022/05/27 03:20:28;;;;;;;5.40;1.40;;;15.00;99.90;;;;;;5110330;28;20070;-68
2022/05/27 03:22:56;;;;;;;5.00;1.48;;;15.00;99.90;;;;;;5111393;28;20023;-68
2022/05/27 03:25:46;;;;;;;2.85;1.38;;;15.00;99.90;;;;;;5111158;28;20074;-68
2022/05/27 03:28:21;;;;;;;7.15;1.55;;;15.00;99.90;;;;;;5100060;28;20032;-68
2022/05/27 03:31:00;;;;;;;8.10;1.95;;;15.00;99.90;;;;;;5111162;28;20051;-68
2022/05/27 03:33:48;;;;;;;8.55;1.45;;;15.00;99.90;;;;;;5111312;28;20484;-68
2022/05/27 03:36:34;;;;;;;6.75;1.42;;;15.00;99.90;;;;;;5111100;28;20028;-68
2022/05/27 03:39:25;;;;;;;5.15;1.38;;;15.00;99.90;;;;;;5111041;28;20023;-68
2022/05/27 03:41:58;;;;;;;4.80;1.38;;;15.00;99.90;;;;;;5107813;28;20496;-68
2022/05/27 03:44:27;;;;;;;5.15;1.25;;;14.90;99.90;;;;;;5111278;28;20110;-68
2022/05/27 03:46:55;;;;;;;4.32;1.55;;;15.00;99.90;;;;;;5109943;28;20043;-68
2022/05/27 03:49:21;;;;;;;7.40;1.80;;;14.90;99.90;;;;;;5111050;28;20096;-68
2022/05/27 03:51:52;;;;;;;3.58;1.85;;;15.00;99.90;;;;;;5110677;28;20031;-68
2022/05/27 03:54:20;;;;;;;6.05;1.73;;;14.90;99.90;;;;;;5108928;28;20198;-68
2022/05/27 03:56:46;;;;;;;2.88;1.40;;;14.90;99.90;;;;;;5110544;28;20377;-68
2022/05/27 03:59:14;;;;;;;9.57;1.65;;;14.90;99.90;;;;;;5110730;28;20533;-68
2022/05/27 04:01:42;;;;;;;7.25;1.73;;;14.80;99.90;;;;;;5110876;28;20068;-68
2022/05/27 04:04:10;;;;;;;3.22;1.10;;;14.80;99.90;;;;;;5110958;28;20054;-68
2022/05/27 04:06:36;;;;;;;3.78;1.25;;;14.70;99.90;;;;;;5110661;28;20020;-68
2022/05/27 04:09:02;;;;;;;6.93;1.40;;;14.70;99.90;;;;;;5110989;28;20460;-68
2022/05/27 04:11:28;;;;;;;4.47;1.40;;;14.70;99.90;;;;;;5110745;28;20040;-68
2022/05/27 04:13:54;;;;;;;3.10;1.48;;;14.60;99.90;;;;;;5110965;28;20042;-68
2022/05/27 04:16:21;;;;;;;1.42;1.10;;;14.60;99.90;;;;;;5108935;28;20063;-68
2022/05/27 04:18:47;;;;;;;5.47;1.75;;;14.60;99.90;;;;;;5107606;28;20058;-68
2022/05/27 04:21:13;;;;;;;4.57;1.20;;;14.50;99.90;;;;;;5109109;28;20472;-68
2022/05/27 04:23:38;;;;;;;4.03;1.40;;;14.40;99.90;;;;;;5110703;28;20028;-68
2022/05/27 04:26:05;;;;;;;4.55;1.40;;;14.30;99.90;;;;;;5110506;28;20031;-68
2022/05/27 04:28:31;;;;;;;7.13;1.50;;;14.30;99.90;;;;;;5110715;28;20027;-68
2022/05/27 04:30:57;;;;;;;3.35;1.42;;;14.30;99.90;;;;;;5109199;28;20069;-68
2022/05/27 04:33:22;;;;;;;4.43;1.42;;;14.20;99.90;;;;;;5107731;28;20028;-68
2022/05/27 04:35:48;;;;;;;4.38;2.00;;;14.20;99.90;;;;;;5107135;28;20107;-68
2022/05/27 04:38:14;;;;;;;5.70;1.73;;;14.10;99.90;;;;;;5109128;28;20081;-68
2022/05/27 04:40:39;;;;;;;7.93;1.60;;;14.10;99.90;;;;;;5110253;28;20054;-68
2022/05/27 04:43:06;;;;;;;3.88;1.42;;;14.00;99.90;;;;;;5110531;28;20015;-68
2022/05/27 04:45:32;;;;;;;2.97;1.08;;;14.00;99.90;;;;;;5110439;28;20031;-68
2022/05/27 04:47:58;;;;;;;3.70;1.70;;;14.00;99.90;;;;;;5110498;28;20374;-68
2022/05/27 04:50:24;;;;;;;3.72;1.33;;;14.00;99.90;;;;;;5110031;28;20114;-68
2022/05/27 04:52:50;;;;;;;3.75;1.40;;;14.00;99.90;;;;;;5110235;28;20044;-68
2022/05/27 04:55:17;;;;;;;4.63;1.35;;;14.00;99.90;;;;;;5110262;28;20495;-68
2022/05/27 04:57:53;;;;;;;3.55;1.10;;;14.00;99.90;;;;;;5110139;28;20024;-68
2022/05/27 05:00:32;;;;;;;2.42;1.15;;;14.00;99.90;;;;;;5109273;28;20031;-68
2022/05/27 05:02:57;;;;;;;4.10;1.10;;;14.00;99.90;;;;;;5106906;28;20480;-68
2022/05/27 05:05:27;;;;;;;3.55;1.10;;;14.00;99.90;;;;;;5106692;28;20156;-68
2022/05/27 05:07:59;;;;;;;2.53;1.00;;;14.00;99.90;;;;;;5108952;28;20019;-68
2022/05/27 05:10:25;;;;;;;2.42;0.85;;;14.00;99.90;;;;;;5110009;28;20023;-68
2022/05/27 05:12:51;;;;;;;1.77;0.77;;;14.00;99.90;;;;;;5107071;28;20023;-68
2022/05/27 05:15:19;;;;;;;2.35;1.00;;;14.10;99.90;;;;;;5106883;28;20081;-68
2022/05/27 05:17:45;;;;;;;2.33;0.70;;;14.10;99.90;;;;;;5090782;28;20396;-68
2022/05/27 05:20:13;;;;;;;1.27;0.98;;;14.20;99.90;;;;;;5109545;28;20117;-68
2022/05/27 05:22:39;;;;;;;2.22;0.80;;;14.30;99.90;;;;;;5110142;28;20028;-68
2022/05/27 05:25:06;;;;;;;0.95;0.60;;;14.30;99.90;;;;;;5109979;28;20024;-68
2022/05/27 05:27:31;;;;;;;5.60;1.10;;;14.40;99.90;;;;;;5109663;28;20031;-68
2022/05/27 05:29:58;;;;;;;2.17;1.02;;;14.50;99.90;;;;;;5109736;28;20059;-68
2022/05/27 05:32:24;;;;;;;1.25;0.82;;;14.60;99.90;;;;;;5108208;28;20024;-68
2022/05/27 05:34:49;;;;;;;2.97;0.90;;;14.70;99.90;;;;;;5106648;28;20114;-68
2022/05/27 05:37:16;;;;;;;3.45;0.93;;;14.70;99.90;;;;;;5108279;28;20361;-68
2022/05/27 05:39:42;;;;;;;1.63;0.82;;;14.80;99.90;;;;;;5109828;28;20514;-68
2022/05/27 05:42:08;;;;;;;1.50;0.50;;;14.90;99.90;;;;;;5107922;28;20118;-68
2022/05/27 05:44:34;;;;;;;2.50;0.90;;;15.00;99.90;;;;;;5113284;28;20058;-68
2022/05/27 05:47:02;;;;;;;2.00;0.70;;;15.10;99.90;;;;;;5110826;28;20031;-68
2022/05/27 05:49:28;;;;;;;1.30;0.47;;;15.20;99.90;;;;;;5110182;28;20071;-68
2022/05/27 05:51:57;;;;;;;0.57;0.57;;;15.30;99.90;;;;;;5111474;28;20062;-68
2022/05/27 05:54:24;;;;;;;0.47;0.40;;;15.30;99.90;;;;;;5113243;28;20080;-68
2022/05/27 05:56:50;;;;;;;0.98;0.70;;;15.40;99.90;;;;;;5112935;28;20027;-68
2022/05/27 05:59:17;;;;;;;0.60;0.52;;;15.50;99.90;;;;;;5112839;28;20027;-68
2022/05/27 06:01:43;;;;;;;1.45;0.38;;;15.60;99.90;;;;;;5110301;28;20055;-68
2022/05/27 06:04:09;;;;;;;0.65;0.60;;;15.70;99.90;;;;;;5109811;28;20409;-68
2022/05/27 06:06:35;;;;;;;0.73;0.43;;;15.80;99.90;;;;;;5109683;28;20027;-68
2022/05/27 06:09:02;;;;;;;1.10;0.60;;;16.00;99.90;;;;;;5110100;28;20095;-69
2022/05/27 06:11:27;;;;;;;1.02;0.50;;;16.10;99.90;;;;;;5112324;28;20495;-68
2022/05/27 06:13:53;;;;;;;1.00;0.55;;;16.20;99.90;;;;;;5112777;28;20042;-68
2022/05/27 06:16:18;;;;;;;0.88;0.55;;;16.30;99.90;;;;;;5112483;28;20024;-68
2022/05/27 06:18:46;;;;;;;1.10;0.70;;;16.40;99.90;;;;;;5112683;28;20044;-68
2022/05/27 06:21:12;;;;;;;2.08;0.90;;;16.40;99.90;;;;;;5112836;28;20035;-68
2022/05/27 06:23:38;;;;;;;1.90;0.70;;;16.50;99.90;;;;;;5111461;28;20031;-68
2022/05/27 06:26:07;;;;;;;1.38;0.68;;;16.50;99.90;;;;;;5109191;28;20126;-68
2022/05/27 06:36:48;;;;;;;3.40;0.65;;;17.00;99.90;;;;;;5112231;28;20111;-68
2022/05/27 06:39:14;;;;;;;1.92;0.80;;;17.10;99.90;;;;;;5112377;28;20024;-68
2022/05/27 06:41:40;;;;;;;1.80;0.80;;;17.20;99.90;;;;;;5112514;28;20115;-67
2022/05/27 06:44:06;;;;;;;2.50;0.90;;;17.40;99.90;;;;;;5112276;28;20068;-68
2022/05/27 06:46:33;;;;;;;1.15;0.73;;;17.70;99.90;;;;;;5112155;28;20023;-67
2022/05/27 06:48:59;;;;;;;1.42;0.82;;;17.90;99.90;;;;;;5112055;28;20764;-67
2022/05/27 06:51:25;;;;;;;0.93;0.73;;;17.90;99.90;;;;;;5111659;28;20491;-67
2022/05/27 06:53:50;;;;;;;1.88;0.80;;;18.00;99.90;;;;;;5111770;28;20032;-67
2022/05/27 06:56:16;;;;;;;1.60;0.70;;;18.30;99.90;;;;;;5111917;28;20026;-67
2022/05/27 06:58:42;;;;;;;1.65;0.90;;;18.30;99.90;;;;;;5111459;28;20069;-67
2022/05/27 07:01:09;;;;;;;0.93;0.80;;;18.30;99.90;;;;;;5110635;28;20032;-67
2022/05/27 07:03:37;;;;;;;1.42;0.80;;;18.30;99.90;;;;;;5108738;28;20016;-67
2022/05/27 07:06:05;;;;;;;1.00;0.60;;;18.30;99.90;;;;;;5108041;28;20035;-67
2022/05/27 07:08:31;;;;;;;1.08;0.85;;;18.50;99.90;;;;;;5111118;28;20036;-67
2022/05/27 07:10:56;;;;;;;1.70;0.98;;;18.60;99.90;;;;;;5111634;28;20035;-67
2022/05/27 07:13:22;;;;;;;0.63;0.52;;;18.70;99.90;;;;;;5111462;28;20095;-67
2022/05/27 07:15:48;;;;;;;0.90;0.70;;;18.70;99.90;;;;;;5111512;28;20024;-66
2022/05/27 07:18:13;;;;;;;1.02;0.82;;;18.70;99.90;;;;;;5111648;28;20070;-67
2022/05/27 07:20:41;;;;;;;1.33;0.70;;;18.80;99.90;;;;;;5111327;28;20039;-68
2022/05/27 07:23:07;;;;;;;1.98;0.80;;;18.70;99.90;;;;;;5109791;28;20363;-66
2022/05/27 07:25:34;;;;;;;2.25;0.80;;;18.70;99.90;;;;;;5111553;28;20035;-66
2022/05/27 07:28:07;;;;;;;6.75;0.98;;;18.40;99.90;;;;;;5111323;28;20023;-68
2022/05/27 07:30:36;;;;;;;3.15;0.75;;;18.40;99.90;;;;;;5111263;28;20104;-67
2022/05/27 07:33:02;;;;;;;2.65;1.02;;;18.50;99.90;;;;;;5111167;28;20035;-67
2022/05/27 07:35:28;;;;;;;2.08;0.80;;;18.50;99.90;;;;;;5111237;28;20110;-68
2022/05/27 07:37:54;;;;;;;5.50;0.95;;;18.40;99.90;;;;;;5108430;28;20111;-67
2022/05/27 07:40:21;;;;;;;1.33;0.68;;;18.60;99.90;;;;;;5107783;28;20036;-68
2022/05/27 07:42:48;;;;;;;1.17;0.75;;;19.00;99.90;;;;;;5108478;28;20515;-68
2022/05/27 07:45:15;;;;;;;2.05;0.80;;;19.60;99.90;;;;;;5111085;28;20467;-68
2022/05/27 07:47:41;;;;;;;2.45;1.35;;;20.60;99.90;;;;;;5111039;28;20031;-68
2022/05/27 07:50:07;;;;;;;2.10;0.90;;;21.80;99.90;;;;;;5108178;28;20028;-68
2022/05/27 07:52:34;;;;;;;2.65;0.90;;;22.40;98.80;;;;;;5107643;28;20110;-68
2022/05/27 07:55:00;;;;;;;1.00;0.80;;;22.90;97.20;;;;;;5107740;28;20372;-68
2022/05/27 07:57:28;;;;;;;3.35;0.77;;;23.50;96.00;;;;;;5107213;28;20027;-68
2022/05/27 07:59:54;;;;;;;1.13;0.60;;;24.00;95.30;;;;;;5107391;28;20565;-68
2022/05/27 08:02:20;;;;;;;2.47;0.90;;;23.60;94.30;;;;;;5107496;28;20475;-66
2022/05/27 08:04:46;;;;;;;1.38;0.60;;;23.20;92.40;;;;;;5107610;28;20051;-66
2022/05/27 08:07:12;;;;;;;2.05;1.20;;;22.50;92.90;;;;;;5107213;28;20595;-66
2022/05/27 08:09:38;;;;;;;2.67;0.88;;;22.30;94.50;;;;;;5108882;28;20371;-67
2022/05/27 08:12:05;;;;;;;2.15;0.70;;;22.90;94.40;;;;;;5110479;28;20030;-65
2022/05/27 08:14:31;;;;;;;1.95;0.85;;;23.70;92.60;;;;;;5110756;28;20095;-64
2022/05/27 08:16:57;;;;;;;3.63;0.77;;;24.40;90.40;;;;;;5110258;28;20031;-64
2022/05/27 08:19:22;;;;;;;1.50;0.70;;;24.80;90.40;;;;;;5110642;28;20032;-63
2022/05/27 08:21:48;;;;;;;2.50;0.93;;;25.40;87.00;;;;;;5110414;28;20426;-63
2022/05/27 08:24:14;;;;;;;2.90;0.90;;;25.70;84.10;;;;;;5108053;28;20085;-63
2022/05/27 08:26:40;;;;;;;2.60;0.90;;;25.50;83.50;;;;;;5107256;28;20024;-66
2022/05/27 08:29:06;;;;;;;1.52;0.85;;;24.80;79.70;;;;;;5109093;28;20027;-65
2022/05/27 08:31:32;;;;;;;2.20;0.95;;;24.50;80.30;;;;;;5110901;28;20032;-65
2022/05/27 08:39:26;;;;;;;2.97;0.90;;;24.50;84.00;;;;;;5107650;28;20061;-66
2022/05/27 08:42:06;;;;;;;1.38;0.82;;;24.70;82.50;;;;;;5108815;28;20406;-66
2022/05/27 08:45:02;;;;;;;0.63;0.60;;;25.60;78.30;;;;;;5110275;28;20031;-66
2022/05/27 08:47:37;;;;;;;1.67;1.10;;;26.50;76.40;;;;;;5105535;28;20035;-66
2022/05/27 08:50:24;;;;;;;2.35;0.90;;;27.10;71.90;;;;;;5107593;28;20484;-66
2022/05/27 08:53:14;;;;;;;2.22;0.93;;;27.60;68.20;;;;;;5109227;28;20011;-66
2022/05/27 09:01:42;;;;;;;1.15;0.73;;;28.60;57.10;;;;;;5035043;28;20416;-66
2022/05/27 09:04:33;;;;;;;1.85;0.80;;;28.80;55.30;;;;;;5109853;28;20027;-66
2022/05/27 09:07:21;;;;;;;3.08;0.98;;;28.80;51.50;;;;;;5089717;28;20032;-66
2022/05/27 09:09:47;;;;;;;3.83;0.90;;;29.00;53.90;;;;;;5089711;28;20023;-66
2022/05/27 09:12:29;;;;;;;1.60;0.82;;;29.40;52.90;;;;;;5089957;28;20032;-66
2022/05/27 09:15:19;;;;;;;2.63;1.20;;;30.00;50.80;;;;;;5089853;28;20165;-67
2022/05/27 09:17:59;;;;;;;1.67;1.02;;;30.40;49.00;;;;;;5072700;28;20024;-66
2022/05/27 09:20:39;;;;;;;2.45;0.82;;;30.10;46.50;;;;;;5110027;28;20586;-66
2022/05/27 09:23:26;;;;;;;2.00;0.98;;;30.10;45.70;;;;;;5113162;28;20624;-66
2022/05/27 09:26:06;;;;;;;4.03;1.30;;;30.00;44.60;;;;;;5110683;28;20028;-67
2022/05/27 09:29:09;;;;;;;1.63;1.08;;;29.90;43.20;;;;;;5110339;27;20444;-66
2022/05/27 09:31:41;;;;;;;1.05;0.70;;;30.10;43.10;;;;;;5111441;28;20032;-67
2022/05/27 09:34:10;;;;;;;2.25;0.73;;;30.70;39.70;;;;;;5110902;28;20067;-67
2022/05/27 09:36:39;;;;;;;2.05;1.58;;;31.20;37.90;;;;;;5111850;28;20015;-67
2022/05/27 09:39:10;;;;;;;2.28;1.00;;;31.40;36.40;;;;;;5113873;28;20136;-68
2022/05/27 09:42:01;;;;;;;2.75;1.23;;;31.60;35.60;;;;;;5113914;28;20032;-67
2022/05/27 09:44:41;;;;;;;1.33;1.02;;;31.80;34.70;;;;;;5113657;28;20024;-65
2022/05/27 09:47:06;;;;;;;3.23;1.40;;;32.10;34.60;;;;;;5113699;28;20027;-66
2022/05/27 09:49:32;;;;;;;2.53;1.20;;;31.50;29.80;;;;;;5113399;28;20652;-69
2022/05/27 09:51:59;;;;;;;3.83;1.80;;;32.60;34.70;;;;;;5113603;27;20023;-67
2022/05/27 09:54:31;;;;;;;1.83;1.13;;;33.20;33.00;;;;;;5113583;28;20027;-66
2022/05/27 09:57:03;;;;;;;1.80;1.02;;;33.70;30.00;;;;;;5113329;28;20102;-64
2022/05/27 09:59:36;;;;;;;2.92;0.90;;;33.70;28.60;;;;;;5113261;28;20035;-67
2022/05/27 10:02:15;;;;;;;2.55;0.90;;;33.90;27.80;;;;;;5112932;28;20020;-68
2022/05/27 10:04:50;;;;;;;2.75;1.00;;;34.20;27.30;;;;;;5113071;28;20028;-67
2022/05/27 10:07:28;;;;;;;2.88;0.88;;;34.30;26.10;;;;;;5113121;28;20217;-67
2022/05/27 10:09:54;;;;;;;3.22;1.20;;;34.70;24.40;;;;;;5113386;28;20035;-67
2022/05/27 10:12:32;;;;;;;3.45;1.23;;;35.10;25.40;;;;;;5094742;28;20093;-66
2022/05/27 10:14:58;;;;;;;2.83;1.27;;;35.50;24.60;;;;;;5112957;28;20028;-67
2022/05/27 10:17:35;;;;;;;5.18;1.38;;;35.90;24.40;;;;;;5112806;28;20504;-67
2022/05/27 10:20:27;;;;;;;3.10;1.08;;;35.30;25.30;;;;;;5112501;28;20492;-68
2022/05/27 10:23:04;;;;;;;2.22;1.10;;;35.60;24.00;;;;;;5112591;28;20027;-68
2022/05/27 10:25:34;;;;;;;2.90;1.50;;;36.00;22.00;;;;;;5110071;28;20034;-68
2022/05/27 10:28:00;;;;;;;1.20;0.80;;;35.60;21.40;;;;;;5109351;28;20043;-67
2022/05/27 10:30:33;;;;;;;1.83;0.90;;;36.30;20.30;;;;;;5110148;28;20467;-67
2022/05/27 10:33:23;;;;;;;2.80;1.15;;;36.20;19.90;;;;;;5109645;28;20487;-67
2022/05/27 10:35:51;;;;;;;4.05;1.05;;;36.50;20.00;;;;;;5111718;28;20031;-66
2022/05/27 10:38:29;;;;;;;2.47;1.00;;;37.10;20.40;;;;;;5112359;28;20030;-67
2022/05/27 10:40:59;;;;;;;2.00;1.17;;;36.30;17.30;;;;;;5112380;28;20023;-66
2022/05/27 10:44:01;;;;;;;5.78;1.20;;;36.90;20.20;;;;;;5112324;28;20028;-68
2022/05/27 10:46:33;;;;;;;2.88;1.15;;;37.20;18.20;;;;;;5112451;28;20077;-68
2022/05/27 10:49:01;;;;;;;3.03;1.10;;;37.20;17.80;;;;;;5110797;28;20045;-69
2022/05/27 10:52:06;;;;;;;2.53;0.98;;;37.70;19.20;;;;;;5110293;28;20073;-67
2022/05/27 10:54:40;;;;;;;2.80;0.90;;;37.80;18.80;;;;;;5060897;28;20480;-66
2022/05/27 11:03:34;;;;;;;2.77;1.50;;;37.70;16.70;;;;;;5109331;28;20324;-66
2022/05/27 11:06:35;;;;;;;3.67;1.25;;;37.60;18.00;;;;;;5111212;28;20276;-65
2022/05/27 11:09:20;;;;;;;3.88;2.03;;;38.20;18.00;;;;;;5108690;28;20034;-66
2022/05/27 11:12:02;;;;;;;2.65;1.23;;;38.00;17.10;;;;;;5109483;28;20029;-65
2022/05/27 11:17:41;;;;;;;4.57;1.23;;;38.30;17.00;;;;;;5108770;28;20092;-66
2022/05/27 11:20:33;;;;;;;2.45;1.25;;;38.40;17.50;;;;;;5108613;28;20024;-66
2022/05/27 11:23:17;;;;;;;4.00;1.55;;;38.40;17.30;;;;;;5108777;28;20031;-66
2022/05/27 11:26:20;;;;;;;1.50;0.98;;;38.30;17.10;;;;;;5108306;28;20489;-68
2022/05/27 11:28:57;;;;;;;3.38;1.05;;;38.30;17.10;;;;;;5107978;28;20031;-66
2022/05/27 11:31:32;;;;;;;5.18;1.33;;;38.10;17.20;;;;;;5108336;28;20523;-66
2022/05/27 11:34:22;;;;;;;2.35;1.17;;;37.80;16.70;;;;;;5108132;28;20659;-66
2022/05/27 11:37:14;;;;;;;4.25;1.10;;;38.20;16.20;;;;;;5107872;28;20035;-66
2022/05/27 11:40:13;;;;;;;2.42;1.08;;;37.30;16.10;;;;;;5107434;28;20098;-68
2022/05/27 11:42:52;;;;;;;2.88;1.23;;;38.20;16.60;;;;;;5108278;28;20029;-69
2022/05/27 11:45:24;;;;;;;3.15;1.35;;;37.80;16.50;;;;;;5108206;28;20429;-69
2022/05/27 11:48:10;;;;;;;2.72;1.25;;;38.00;16.10;;;;;;5108327;28;20020;-68
2022/05/27 11:50:45;;;;;;;3.85;1.35;;;38.20;18.20;;;;;;5108259;28;20048;-68
2022/05/27 11:53:47;;;;;;;2.72;0.90;;;38.10;15.90;;;;;;5108181;28;20480;-67
2022/05/27 11:56:37;;;;;;;2.35;1.08;;;38.60;16.00;;;;;;5108136;28;20031;-67
2022/05/27 11:59:28;;;;;;;1.95;1.00;;;38.40;14.70;;;;;;5106658;28;20139;-66
2022/05/27 12:02:02;;;;;;;2.80;1.00;;;38.30;15.80;;;;;;5107997;28;20496;-67
2022/05/27 12:04:33;;;;;;;2.75;1.13;;;38.30;15.20;;;;;;5108297;28;20041;-67
2022/05/27 12:07:19;;;;;;;2.47;1.20;;;38.10;15.20;;;;;;5089553;28;20387;-69
2022/05/27 12:10:14;;;;;;;3.50;1.42;;;37.90;14.60;;;;;;5110845;28;20484;-66
2022/05/27 12:13:09;;;;;;;3.70;1.17;;;37.80;14.50;;;;;;5110235;28;20032;-66
2022/05/27 12:15:48;;;;;;;3.50;1.00;;;37.80;14.80;;;;;;5107538;28;20438;-66
2022/05/27 12:18:36;;;;;;;3.80;1.73;;;37.70;13.60;;;;;;5108580;28;20016;-64
2022/05/27 12:21:06;;;;;;;4.45;1.75;;;37.30;14.50;;;;;;5087651;28;20115;-65
2022/05/27 12:23:35;;;;;;;4.43;1.13;;;36.90;14.20;;;;;;5087518;28;20138;-64
2022/05/27 12:26:01;;;;;;;2.40;1.15;;;36.80;13.80;;;;;;5087609;28;20028;-66
2022/05/27 12:28:34;;;;;;;2.30;1.20;;;36.30;15.10;;;;;;5087344;28;20065;-66
2022/05/27 12:31:01;;;;;;;5.20;1.83;;;36.50;14.70;;;;;;5087299;28;20051;-66
2022/05/27 12:33:28;;;;;;;1.90;0.80;;;36.70;15.30;;;;;;5087298;28;20027;-65
2022/05/27 12:35:59;;;;;;;3.88;1.20;;;36.40;15.10;;;;;;5087754;28;20016;-64
2022/05/27 12:38:37;;;;;;;6.97;1.58;;;36.40;14.20;;;;;;5087922;28;20500;-65
2022/05/27 12:41:08;;;;;;;3.00;0.88;;;35.90;15.50;;;;;;5087868;28;20407;-67
2022/05/27 12:43:53;;;;;;;4.28;1.20;;;36.00;14.60;;;;;;5087475;28;20031;-66
2022/05/27 12:46:25;;;;;;;2.95;1.27;;;36.00;15.80;;;;;;5096613;28;20020;-65
2022/05/27 12:48:51;;;;;;;4.47;1.13;;;35.70;14.70;;;;;;5107465;28;20159;-65
2022/05/27 12:51:18;;;;;;;4.07;1.08;;;35.50;15.20;;;;;;5108271;28;20034;-66
2022/05/27 12:53:55;;;;;;;3.15;1.13;;;35.40;16.20;;;;;;5111977;27;20059;-67
2022/05/27 13:02:21;;;;;;;3.30;1.00;;;35.60;15.60;;;;;;5111385;28;20034;-68
2022/05/27 13:04:50;;;;;;;2.30;1.05;;;35.10;14.50;;;;;;5111150;28;20038;-69
2022/05/27 13:07:40;;;;;;;4.43;1.15;;;34.80;14.10;;;;;;5111245;27;20043;-68
2022/05/27 13:10:18;;;;;;;2.95;1.27;;;34.60;14.20;;;;;;5110977;28;20036;-68
2022/05/27 13:12:54;;;;;;;4.35;1.30;;;34.50;15.10;;;;;;5111137;28;20024;-69
2022/05/27 13:15:34;;;;;;;2.75;1.13;;;34.60;14.40;;;;;;5111315;28;20035;-68
2022/05/27 13:18:30;;;;;;;2.35;1.33;;;34.20;14.60;;;;;;5111312;28;20028;-68
2022/05/27 13:21:05;;;;;;;2.10;0.93;;;33.90;14.30;;;;;;5111045;28;20024;-67
2022/05/27 13:23:32;;;;;;;3.72;1.35;;;33.30;14.30;;;;;;5111159;28;20098;-66
2022/05/27 13:26:06;;;;;;;2.55;1.33;;;33.00;15.40;;;;;;5110967;28;20035;-67
2022/05/27 13:28:45;;;;;;;2.60;0.93;;;32.60;14.70;;;;;;5110637;28;20028;-67
2022/05/27 13:31:13;;;;;;;1.27;1.17;;;32.50;15.50;;;;;;5110863;28;20043;-64
2022/05/27 13:34:13;;;;;;;3.45;1.10;;;32.60;16.00;;;;;;5110796;28;20087;-64
2022/05/27 13:36:51;;;;;;;3.75;1.15;;;32.90;14.80;;;;;;5109672;28;20055;-63
2022/05/27 13:39:22;;;;;;;1.50;0.90;;;33.00;14.40;;;;;;5110689;28;20024;-63
2022/05/27 13:41:51;;;;;;;7.13;1.63;;;33.30;14.80;;;;;;5110721;28;20024;-64
2022/05/27 13:44:20;;;;;;;7.00;1.40;;;33.00;14.80;;;;;;5110214;28;20035;-65
2022/05/27 13:46:50;;;;;;;4.32;1.58;;;32.90;14.40;;;;;;5110588;28;20084;-64
2022/05/27 13:49:30;;;;;;;1.85;1.20;;;32.50;12.90;;;;;;5110288;28;20064;-66
2022/05/27 13:51:56;;;;;;;2.47;1.00;;;31.70;13.70;;;;;;5110138;28;20031;-67